createdAt,value
2022-10-19T00:04:00.586Z,11.90
2022-10-19T00:09:08.756Z,11.50
2022-10-19T00:14:17.820Z,12.07
2022-10-19T00:19:24.470Z,13.00
2022-10-19T00:24:29.910Z,11.97
2022-10-19T00:29:33.613Z,11.07
2022-10-19T00:34:36.922Z,11.00
2022-10-19T00:39:42.081Z,10.27
2022-10-19T00:45:03.669Z,10.90
2022-10-19T00:50:08.211Z,13.35
2022-10-19T00:55:14.172Z,15.60
2022-10-19T01:00:17.906Z,14.70
2022-10-19T01:05:21.481Z,15.50
2022-10-19T01:10:33.980Z,16.63
2022-10-19T01:15:45.417Z,19.25
2022-10-19T01:21:11.645Z,18.55
2022-10-19T01:26:35.222Z,18.83
2022-10-19T01:31:48.211Z,16.90
2022-10-19T01:36:59.155Z,17.10
2022-10-19T01:42:09.409Z,15.38
2022-10-19T01:47:20.203Z,15.13
2022-10-19T01:52:25.629Z,15.90
2022-10-19T02:02:38.907Z,14.57
2022-10-19T02:07:45.390Z,16.02
2022-10-19T02:12:50.188Z,13.30
2022-10-19T02:17:59.858Z,13.07
2022-10-19T02:23:05.876Z,13.60
2022-10-19T02:28:09.542Z,11.43
2022-10-19T02:33:14.459Z,11.60
2022-10-19T02:38:22.700Z,11.50
2022-10-19T02:43:27.762Z,10.75
2022-10-19T02:48:35.282Z,10.93
2022-10-19T02:53:38.570Z,10.10
2022-10-19T02:58:41.840Z,10.27
2022-10-19T03:18:57.147Z,10.90
2022-10-19T03:24:01.844Z,10.48
2022-10-19T03:29:05.702Z,10.93
2022-10-19T03:34:10.422Z,11.27
2022-10-19T03:39:15.439Z,10.95
2022-10-19T03:44:18.738Z,10.98
2022-10-19T03:49:23.590Z,11.27
2022-10-19T03:54:27.584Z,11.73
2022-10-19T04:14:56.366Z,10.43
2022-10-19T04:20:02.226Z,10.80
2022-10-19T04:25:06.721Z,10.38
2022-10-19T04:30:10.728Z,10.75
2022-10-19T04:35:15.538Z,12.33
2022-10-19T04:40:19.001Z,13.13
2022-10-19T04:45:22.394Z,12.63
2022-10-19T04:50:27.056Z,12.43
2022-10-19T04:55:32.125Z,12.57
2022-10-19T05:00:35.416Z,10.48
2022-10-19T05:05:40.158Z,12.73
2022-10-19T05:10:46.990Z,13.57
2022-10-19T05:15:57.494Z,15.03
2022-10-19T05:21:07.057Z,13.30
2022-10-19T05:26:12.533Z,12.90
2022-10-19T05:31:17.569Z,16.33
2022-10-19T05:36:26.162Z,16.83
2022-10-19T05:41:29.547Z,15.30
2022-10-19T05:46:34.241Z,14.20
2022-10-19T05:51:39.606Z,12.63
2022-10-19T05:56:43.769Z,13.23
2022-10-19T06:01:48.122Z,13.20
2022-10-19T06:06:52.815Z,11.35
2022-10-19T06:11:56.090Z,11.50
2022-10-19T06:16:59.368Z,11.90
2022-10-19T06:22:04.024Z,13.23
2022-10-19T06:27:07.397Z,12.10
2022-10-19T06:32:10.660Z,12.32
2022-10-19T06:37:15.332Z,12.75
2022-10-19T06:42:18.583Z,11.75
2022-10-19T06:47:21.885Z,10.73
2022-10-19T06:52:26.550Z,10.90
2022-10-19T06:57:29.893Z,10.10
2022-10-19T07:02:34.111Z,11.60
2022-10-19T07:07:38.883Z,10.80
2022-10-19T07:12:42.247Z,10.05
2022-10-19T07:17:45.505Z,12.00
2022-10-19T07:22:50.140Z,10.75
2022-10-19T07:27:53.457Z,10.35
2022-10-19T07:32:56.701Z,10.75
2022-10-19T07:38:01.529Z,10.00
2022-10-19T07:48:08.631Z,9.40
2022-10-19T07:53:13.496Z,8.50
2022-10-19T07:58:17.034Z,7.27
2022-10-19T08:08:46.453Z,6.73
2022-10-19T08:13:50.074Z,7.28
2022-10-19T08:18:54.348Z,6.60
2022-10-19T08:23:59.650Z,6.82
2022-10-19T08:29:03.698Z,6.33
2022-10-19T08:34:07.989Z,6.00
2022-10-19T08:39:13.506Z,7.28
2022-10-19T08:44:48.838Z,7.55
2022-10-19T08:49:52.829Z,7.33
2022-10-19T08:55:00.918Z,7.35
2022-10-19T09:00:09.585Z,7.37
2022-10-19T09:05:21.732Z,7.23
2022-10-19T09:10:29.300Z,5.60
2022-10-19T09:15:39.695Z,5.28
2022-10-19T09:20:45.676Z,3.80
2022-10-19T09:25:51.925Z,3.50
2022-10-19T09:30:58.510Z,4.30
2022-10-19T09:36:03.968Z,3.50
2022-10-19T09:41:18.911Z,3.60
2022-10-19T09:46:37.973Z,3.57
2022-10-19T09:51:50.483Z,3.80
2022-10-19T09:56:58.307Z,3.13
2022-10-19T10:02:06.092Z,3.85
2022-10-19T10:07:17.712Z,3.88
2022-10-19T10:12:24.073Z,4.13
2022-10-19T10:17:31.592Z,4.10
2022-10-19T10:22:37.676Z,4.00
2022-10-19T10:27:42.380Z,3.27
2022-10-19T10:32:50.462Z,3.05
2022-10-19T10:37:54.227Z,3.23
2022-10-19T10:43:05.786Z,2.93
2022-10-19T10:48:21.436Z,2.85
2022-10-19T10:58:43.527Z,2.65
2022-10-19T11:03:52.134Z,3.30
2022-10-19T11:09:04.777Z,3.20
2022-10-19T11:14:25.585Z,3.58
2022-10-19T11:19:32.905Z,3.10
2022-10-19T11:24:46.479Z,3.67
2022-10-19T11:30:04.268Z,4.00
2022-10-19T11:35:30.094Z,3.70
2022-10-19T11:40:45.848Z,4.10
2022-10-19T11:46:12.225Z,3.83
2022-10-19T11:51:22.443Z,3.22
2022-10-19T11:56:44.807Z,3.70
2022-10-19T12:02:06.102Z,3.70
2022-10-19T12:07:42.323Z,3.50
2022-10-19T12:12:49.680Z,3.30
2022-10-19T12:17:57.483Z,3.47
2022-10-19T12:23:03.059Z,3.20
2022-10-19T12:28:06.616Z,3.10
2022-10-19T12:33:21.205Z,3.35
2022-10-19T12:38:31.321Z,2.63
2022-10-19T12:43:41.824Z,2.58
2022-10-19T12:48:46.506Z,2.42
2022-10-19T12:53:50.627Z,3.00
2022-10-19T12:58:56.826Z,2.97
2022-10-19T13:04:20.613Z,2.17
2022-10-19T13:09:27.578Z,2.55
2022-10-19T13:14:45.706Z,2.20
2022-10-19T13:19:50.379Z,2.13
2022-10-19T13:25:30.334Z,2.57
2022-10-19T13:31:04.958Z,2.70
2022-10-19T13:36:15.013Z,2.50
2022-10-19T13:41:21.688Z,2.27
2022-10-19T13:46:46.687Z,2.33
2022-10-19T13:52:06.220Z,2.10
2022-10-19T13:57:19.792Z,2.00
2022-10-19T14:03:01.734Z,2.00
2022-10-19T14:08:16.457Z,2.80
2022-10-19T14:13:22.326Z,2.72
2022-10-19T14:18:30.945Z,2.95
2022-10-19T14:23:38.157Z,3.30
2022-10-19T14:28:43.087Z,2.60
2022-10-19T14:33:48.964Z,2.47
2022-10-19T14:38:55.957Z,2.70
2022-10-19T14:44:00.596Z,2.30
2022-10-19T14:49:05.777Z,2.30
2022-10-19T14:54:18.782Z,2.30
2022-10-19T14:59:26.302Z,2.97
2022-10-19T15:04:32.625Z,2.70
2022-10-19T15:09:52.533Z,2.20
2022-10-19T15:14:56.141Z,2.20
2022-10-19T15:20:01.556Z,2.67
2022-10-19T15:25:27.400Z,2.83
2022-10-19T15:30:33.653Z,3.15
2022-10-19T15:35:38.944Z,3.50
2022-10-19T15:40:45.741Z,3.70
2022-10-19T15:45:49.058Z,3.67
2022-10-19T15:50:53.086Z,3.70
2022-10-19T15:55:59.356Z,3.83
2022-10-19T16:01:02.722Z,4.30
2022-10-19T16:06:06.498Z,4.45
2022-10-19T16:11:14.687Z,4.50
2022-10-19T16:16:22.097Z,4.78
2022-10-19T16:21:28.047Z,4.50
2022-10-19T16:26:33.204Z,4.88
2022-10-19T16:31:36.754Z,6.43
2022-10-19T16:36:40.049Z,9.07
2022-10-19T16:41:45.426Z,11.52
2022-10-19T16:46:48.720Z,9.10
2022-10-19T16:51:54.809Z,8.00
2022-10-19T16:57:04.673Z,5.80
2022-10-19T17:02:12.316Z,6.03
2022-10-19T17:07:16.041Z,5.68
2022-10-19T17:12:20.961Z,5.87
2022-10-19T17:17:24.238Z,5.72
2022-10-19T17:22:27.666Z,6.35
2022-10-19T17:27:32.377Z,7.20
2022-10-19T17:32:36.149Z,8.30
2022-10-19T17:37:40.130Z,8.52
2022-10-19T17:42:44.808Z,8.33
2022-10-19T17:47:48.067Z,8.68
2022-10-19T17:52:51.324Z,8.20
2022-10-19T17:57:56.217Z,10.87
2022-10-19T18:02:59.533Z,9.00
2022-10-19T18:08:02.842Z,8.43
2022-10-19T18:13:09.640Z,8.55
2022-10-19T18:18:15.705Z,8.48
2022-10-19T18:23:19.105Z,8.35
2022-10-19T18:28:23.887Z,8.98
2022-10-19T18:33:30.240Z,8.20
2022-10-19T18:38:36.217Z,8.40
2022-10-19T18:43:41.932Z,8.52
2022-10-19T18:48:45.434Z,8.87
2022-10-19T18:53:49.294Z,8.85
2022-10-19T18:58:54.164Z,8.60
2022-10-19T19:04:08.369Z,8.70
2022-10-19T19:09:12.957Z,8.73
2022-10-19T19:14:21.075Z,8.52
2022-10-19T19:19:25.901Z,8.90
2022-10-19T19:24:31.656Z,9.65
2022-10-19T19:44:47.117Z,9.70
2022-10-19T19:49:50.440Z,10.50
2022-10-19T19:54:53.772Z,10.67
2022-10-19T19:59:58.480Z,9.80
2022-10-19T20:10:05.093Z,10.53
2022-10-19T20:15:10.863Z,10.90
2022-10-19T20:20:17.938Z,10.13
2022-10-19T20:25:21.330Z,10.35
2022-10-19T20:30:25.957Z,11.07
2022-10-19T20:35:29.265Z,10.88
2022-10-19T20:40:32.563Z,10.82
2022-10-19T20:45:37.221Z,11.35
2022-10-19T20:50:40.875Z,11.23
2022-10-19T20:55:44.203Z,11.50
2022-10-19T21:00:48.870Z,11.90
2022-10-19T21:05:52.188Z,10.70
2022-10-19T21:10:55.429Z,11.18
2022-10-19T21:16:08.494Z,12.00
2022-10-19T21:21:17.232Z,11.68
2022-10-19T21:26:21.048Z,12.18
2022-10-19T21:31:27.141Z,11.90
2022-10-19T21:36:30.565Z,11.97
2022-10-19T21:41:34.155Z,13.00
2022-10-19T21:46:39.058Z,12.80
2022-10-19T21:51:45.254Z,11.27
2022-10-19T21:56:49.013Z,11.10
2022-10-19T22:01:54.670Z,12.77
2022-10-19T22:06:59.573Z,13.90
2022-10-19T22:12:02.867Z,12.15
2022-10-19T22:17:07.579Z,10.93
2022-10-19T22:22:10.851Z,10.75
2022-10-19T22:27:14.146Z,11.70
2022-10-19T22:32:18.840Z,11.32
2022-10-19T22:37:22.138Z,11.40
2022-10-19T22:42:25.363Z,14.20
2022-10-19T22:47:30.166Z,15.10
2022-10-19T22:52:33.710Z,15.82
2022-10-19T22:57:39.265Z,15.07
2022-10-19T23:02:44.045Z,16.53
2022-10-19T23:07:47.356Z,16.77
2022-10-19T23:12:51.245Z,18.17
2022-10-19T23:17:55.901Z,15.63
2022-10-19T23:22:59.138Z,17.35
2022-10-19T23:28:02.574Z,20.35
2022-10-19T23:33:07.150Z,20.48
2022-10-19T23:38:10.485Z,16.17
2022-10-19T23:43:13.722Z,14.03
2022-10-19T23:48:18.406Z,14.17
2022-10-19T23:53:21.676Z,12.45
2022-10-19T23:58:25.044Z,12.20
